Time;durP1;ratioP1;P1;durP2;ratioP2;P2;SDS_P1;SDS_P2;PMS_P1;PMS_P2;Temp;Humidity;BMP_temperature;BMP_pressure;BME280_temperature;BME280_humidity;BME280_pressure;Samples;Min_cycle;Max_cycle;Signal;HPM_P1;HPM_P2
2022/05/23 00:02:00;;;;;;;4.38;2.10;;;512.70;1408.00;;;;;;5014573;28;20025;-74
2022/05/23 00:04:26;;;;;;;3.95;1.73;;;512.80;1408.00;;;;;;5014323;28;20018;-77
2022/05/23 00:06:54;;;;;;;3.42;1.80;;;512.90;1382.40;;;;;;4996870;28;20029;-75
2022/05/23 00:09:20;;;;;;;3.20;1.83;;;537.70;1408.00;;;;;;5014522;28;20025;-75
2022/05/23 00:11:46;;;;;;;4.22;1.80;;;537.70;1382.40;;;;;;5014450;28;20018;-75
2022/05/23 00:14:12;;;;;;;7.78;2.17;;;537.80;1382.40;;;;;;5012986;28;20382;-75
2022/05/23 00:16:41;;;;;;;5.53;1.75;;;537.70;1382.40;;;;;;5014530;28;20035;-76
2022/05/23 00:19:11;;;;;;;3.42;2.05;;;537.70;1382.40;;;;;;4993892;28;20033;-74
2022/05/23 00:21:40;;;;;;;8.68;2.10;;;537.80;1382.40;;;;;;5014018;28;20490;-74
2022/05/23 00:24:07;;;;;;;4.22;1.90;;;537.90;1382.40;;;;;;5014017;28;20057;-76
2022/05/23 00:26:33;;;;;;;5.97;1.90;;;538.00;1382.40;;;;;;5014045;28;20029;-74
2022/05/23 00:28:59;;;;;;;5.05;1.60;;;538.00;1382.40;;;;;;4996431;28;20021;-75
2022/05/23 00:31:24;;;;;;;4.95;1.83;;;538.00;1382.40;;;;;;5013830;28;20378;-75
2022/05/23 00:36:35;;;;;;;7.63;2.40;;;538.00;1382.40;;;;;;5012235;28;20109;-75
2022/05/23 00:39:02;;;;;;;5.45;1.70;;;538.00;1382.40;;;;;;5013684;28;20022;-74
2022/05/23 00:44:20;;;;;;;7.55;2.35;;;537.90;1382.40;;;;;;5012892;28;20036;-77
2022/05/23 00:46:57;;;;;;;5.13;2.13;;;537.80;1382.40;;;;;;5013553;28;20020;-77
2022/05/23 00:49:28;;;;;;;2.58;1.45;;;537.80;1382.40;;;;;;5013827;28;20104;-76
2022/05/23 00:51:56;;;;;;;6.82;1.88;;;537.80;1382.40;;;;;;5011294;28;20022;-77
2022/05/23 00:54:24;;;;;;;6.10;1.85;;;537.80;1382.40;;;;;;5013859;28;20030;-75
2022/05/23 00:56:52;;;;;;;6.13;2.45;;;537.80;1382.40;;;;;;5010934;28;20038;-75
2022/05/23 00:59:27;;;;;;;5.30;2.28;;;537.80;1382.40;;;;;;5013280;28;20034;-75
2022/05/23 01:01:53;;;;;;;4.22;2.00;;;537.80;1382.40;;;;;;5011395;28;20363;-75
2022/05/23 01:04:19;;;;;;;7.47;2.80;;;512.70;1382.40;;;;;;5013315;28;20479;-75
2022/05/23 01:06:45;;;;;;;6.85;2.53;;;512.60;1382.40;;;;;;5013413;28;20076;-75
2022/05/23 01:09:11;;;;;;;6.72;2.30;;;512.60;1382.40;;;;;;5013197;28;20021;-75
2022/05/23 01:11:39;;;;;;;5.07;2.45;;;512.70;1382.40;;;;;;5013423;28;20059;-74
2022/05/23 01:14:05;;;;;;;4.78;2.05;;;512.70;1408.00;;;;;;5013041;28;20026;-75
2022/05/23 01:16:32;;;;;;;4.53;2.10;;;512.60;1382.40;;;;;;4995486;28;20404;-76
2022/05/23 01:18:58;;;;;;;5.50;2.30;;;512.50;1408.00;;;;;;5013176;28;20470;-75
2022/05/23 01:21:38;;;;;;;5.50;2.25;;;512.70;1408.00;;;;;;5012842;28;20076;-76
2022/05/23 01:24:20;;;;;;;5.82;2.10;;;512.60;1408.00;;;;;;5012672;28;20128;-75
2022/05/23 01:26:47;;;;;;;3.97;1.85;;;512.60;1408.00;;;;;;5012870;28;20017;-76
2022/05/23 01:29:15;;;;;;;5.70;2.55;;;512.50;1408.00;;;;;;5012756;28;20021;-74
2022/05/23 01:31:42;;;;;;;4.50;2.30;;;512.30;1408.00;;;;;;5013002;28;20017;-73
2022/05/23 01:34:08;;;;;;;6.60;2.15;;;512.20;1433.60;;;;;;4995011;28;20022;-75
2022/05/23 01:36:34;;;;;;;8.25;2.60;;;512.30;1433.60;;;;;;5013031;28;20474;-75
2022/05/23 01:39:00;;;;;;;8.75;2.45;;;512.30;1408.00;;;;;;4994659;28;20038;-76
2022/05/23 01:41:26;;;;;;;5.00;2.40;;;512.30;1408.00;;;;;;5012807;28;20030;-75
2022/05/23 01:43:53;;;;;;;6.22;2.78;;;512.30;1433.60;;;;;;5012724;28;20030;-76
2022/05/23 01:46:19;;;;;;;5.00;2.58;;;512.30;1433.60;;;;;;5012774;28;20044;-75
2022/05/23 01:48:45;;;;;;;7.40;2.22;;;512.40;1408.00;;;;;;5012455;28;20030;-77
2022/05/23 01:51:11;;;;;;;7.90;2.53;;;512.30;1433.60;;;;;;4994539;28;20034;-75
2022/05/23 01:53:36;;;;;;;10.55;2.95;;;512.30;1433.60;;;;;;5012694;28;20018;-78
2022/05/23 01:56:04;;;;;;;6.78;2.15;;;512.30;1433.60;;;;;;5012682;28;20030;-75
2022/05/23 02:01:15;;;;;;;4.95;2.00;;;512.20;1433.60;;;;;;5009804;28;20078;-76
2022/05/23 02:03:45;;;;;;;6.70;2.35;;;512.10;1433.60;;;;;;5012521;28;20022;-77
2022/05/23 02:06:11;;;;;;;6.18;2.35;;;512.00;1433.60;;;;;;5012250;28;20096;-75
2022/05/23 02:08:38;;;;;;;5.15;2.10;;;512.00;1459.20;;;;;;5012209;28;20022;-76
2022/05/23 02:11:06;;;;;;;6.03;1.58;;;487.30;1459.20;;;;;;5012308;28;20014;-77
2022/05/23 02:13:40;;;;;;;6.22;1.92;;;487.30;1459.20;;;;;;5012269;28;20088;-75
2022/05/23 02:16:06;;;;;;;3.38;1.48;;;487.30;1459.20;;;;;;5012162;28;20029;-74
2022/05/23 02:18:32;;;;;;;5.90;1.73;;;487.30;1459.20;;;;;;5011959;28;20029;-76
2022/05/23 02:20:57;;;;;;;5.85;1.92;;;487.30;1459.20;;;;;;5012080;28;20398;-75
2022/05/23 02:23:23;;;;;;;4.10;1.80;;;487.20;1459.20;;;;;;5011904;28;20048;-75
2022/05/23 02:25:50;;;;;;;6.00;2.00;;;487.10;1484.80;;;;;;5012008;28;20017;-76
2022/05/23 02:28:15;;;;;;;6.72;2.30;;;487.10;1459.20;;;;;;5012132;28;20026;-75
2022/05/23 02:30:41;;;;;;;4.85;1.98;;;487.10;1484.80;;;;;;5011899;28;20080;-75
2022/05/23 02:33:07;;;;;;;4.68;1.65;;;487.20;1484.80;;;;;;4994506;28;20022;-76
2022/05/23 02:35:33;;;;;;;5.40;2.17;;;487.10;1484.80;;;;;;5008708;28;20029;-76
2022/05/23 02:37:59;;;;;;;6.85;2.58;;;487.10;1484.80;;;;;;5011816;28;20379;-75
2022/05/23 02:40:25;;;;;;;5.72;2.03;;;487.10;1510.40;;;;;;5011868;28;20363;-77
2022/05/23 02:42:51;;;;;;;4.78;2.08;;;487.10;1510.40;;;;;;4994329;28;20467;-75
2022/05/23 02:45:17;;;;;;;3.47;1.80;;;487.10;1510.40;;;;;;5011759;28;20029;-77
2022/05/23 02:47:43;;;;;;;5.07;1.77;;;487.10;1510.40;;;;;;5012025;28;20045;-75
2022/05/23 02:50:11;;;;;;;3.63;1.90;;;486.90;1536.00;;;;;;5011679;28;20097;-78
2022/05/23 02:52:38;;;;;;;6.93;2.55;;;486.80;1536.00;;;;;;5009410;28;20034;-75
2022/05/23 02:55:05;;;;;;;5.13;2.20;;;486.70;1536.00;;;;;;5011959;28;20022;-77
2022/05/23 02:57:31;;;;;;;6.82;2.00;;;486.50;1561.60;;;;;;5011619;28;20030;-75
2022/05/23 02:59:57;;;;;;;10.95;2.17;;;486.50;1587.20;;;;;;5011838;28;20057;-75
2022/05/23 03:05:08;;;;;;;6.38;1.88;;;486.50;1587.20;;;;;;5010717;28;20152;-75
2022/05/23 03:07:33;;;;;;;4.00;2.13;;;486.40;1587.20;;;;;;5011629;28;20010;-76
2022/05/23 03:10:00;;;;;;;5.05;2.00;;;486.40;1587.20;;;;;;5011609;28;20029;-75
2022/05/23 03:12:27;;;;;;;7.15;2.30;;;461.70;1612.80;;;;;;5012037;28;20469;-75
2022/05/23 03:14:53;;;;;;;7.53;2.40;;;486.40;1612.80;;;;;;5011589;28;20492;-76
2022/05/23 03:17:19;;;;;;;5.22;2.03;;;486.40;1612.80;;;;;;4994165;28;20057;-75
2022/05/23 03:19:45;;;;;;;6.00;2.63;;;486.40;1612.80;;;;;;4993924;28;20049;-75
2022/05/23 03:27:40;;;;;;;10.32;2.67;;;486.50;1664.00;;;;;;5009610;28;20033;-75
2022/05/23 03:30:07;;;;;;;5.03;2.53;;;461.60;1664.00;;;;;;5011706;28;20018;-77
2022/05/23 03:32:34;;;;;;;8.40;2.65;;;461.50;1664.00;;;;;;5011309;28;20032;-75
2022/05/23 03:35:00;;;;;;;3.85;2.03;;;461.40;1664.00;;;;;;5011670;28;20458;-77
2022/05/23 03:37:25;;;;;;;5.72;2.10;;;461.40;1689.60;;;;;;5011308;28;20036;-76
2022/05/23 03:39:51;;;;;;;7.38;2.13;;;461.40;1689.60;;;;;;5011358;28;20084;-76
2022/05/23 03:42:17;;;;;;;6.30;2.33;;;461.40;1715.20;;;;;;4993967;28;20104;-76
2022/05/23 03:44:43;;;;;;;4.32;1.83;;;461.40;1715.20;;;;;;4993786;28;20596;-76
2022/05/23 03:47:10;;;;;;;5.72;2.17;;;461.40;1715.20;;;;;;5012098;28;20025;-76
2022/05/23 03:49:35;;;;;;;5.95;2.25;;;461.40;1715.20;;;;;;5014627;28;20862;-75
2022/05/23 03:52:01;;;;;;;5.35;2.20;;;461.40;1740.80;;;;;;5013461;28;20030;-76
2022/05/23 03:54:27;;;;;;;4.50;1.90;;;461.50;1740.80;;;;;;4997344;28;20026;-76
2022/05/23 03:56:58;;;;;;;6.43;2.47;;;461.40;1740.80;;;;;;5014778;28;20580;-76
2022/05/23 03:59:25;;;;;;;8.98;2.45;;;461.40;1766.40;;;;;;5014700;28;20052;-76
2022/05/23 04:01:53;;;;;;;4.82;2.08;;;461.40;1766.40;;;;;;5014742;28;20018;-76
2022/05/23 04:04:20;;;;;;;5.57;1.85;;;461.30;1792.00;;;;;;4993827;28;20375;-76
2022/05/23 04:06:47;;;;;;;4.32;2.33;;;461.40;1766.40;;;;;;5014364;28;20024;-76
2022/05/23 04:09:13;;;;;;;5.95;1.90;;;461.40;1766.40;;;;;;4997062;28;20037;-76
2022/05/23 04:11:38;;;;;;;6.70;2.10;;;461.40;1766.40;;;;;;5014180;28;20068;-76
2022/05/23 04:14:04;;;;;;;9.70;2.60;;;461.50;1792.00;;;;;;4997000;28;20022;-76
2022/05/23 04:16:30;;;;;;;9.48;2.63;;;461.50;1792.00;;;;;;5014296;28;20466;-76
2022/05/23 04:18:56;;;;;;;5.30;2.53;;;461.50;1792.00;;;;;;5014825;28;20501;-76
2022/05/23 04:21:23;;;;;;;5.97;2.17;;;461.50;1792.00;;;;;;5014334;28;20083;-76
2022/05/23 04:23:49;;;;;;;5.85;2.05;;;461.50;1792.00;;;;;;5014756;28;20061;-77
2022/05/23 04:26:15;;;;;;;6.82;2.50;;;461.60;1792.00;;;;;;5014474;28;20018;-76
2022/05/23 04:28:41;;;;;;;7.70;2.75;;;461.60;1792.00;;;;;;4996522;28;20470;-76
2022/05/23 04:31:10;;;;;;;5.70;2.42;;;461.70;1766.40;;;;;;5014179;28;20029;-76
2022/05/23 04:36:20;;;;;;;6.40;2.15;;;461.70;1766.40;;;;;;5012244;28;20164;-77
2022/05/23 04:38:45;;;;;;;5.72;2.10;;;486.40;1740.80;;;;;;5013708;28;20120;-77
2022/05/23 04:41:12;;;;;;;45.78;4.85;;;486.50;1715.20;;;;;;4996535;28;20029;-78
2022/05/23 04:43:37;;;;;;;10.55;2.70;;;487.10;1715.20;;;;;;5013663;28;20029;-77
2022/05/23 04:46:03;;;;;;;9.43;2.83;;;486.70;1689.60;;;;;;5013776;28;20017;-76
2022/05/23 04:51:13;;;;;;;3.60;2.00;;;486.80;1664.00;;;;;;5012858;28;20087;-76
2022/05/23 04:53:39;;;;;;;7.47;2.35;;;486.80;1689.60;;;;;;5013955;28;20537;-77
2022/05/23 04:56:05;;;;;;;9.60;2.10;;;486.90;1638.40;;;;;;4996498;28;20025;-78
2022/05/23 04:58:32;;;;;;;7.25;2.05;;;487.00;1638.40;;;;;;4996133;28;20038;-78
2022/05/23 05:00:59;;;;;;;6.85;2.00;;;487.10;1612.80;;;;;;5013382;28;20017;-78
2022/05/23 05:03:25;;;;;;;5.45;1.80;;;487.10;1638.40;;;;;;5013449;28;20037;-77
2022/05/23 05:05:51;;;;;;;4.32;1.98;;;487.20;1612.80;;;;;;5013639;28;20100;-78
2022/05/23 05:08:17;;;;;;;6.03;2.33;;;487.30;1612.80;;;;;;4995645;28;20024;-76
2022/05/23 05:10:44;;;;;;;4.82;1.83;;;487.30;1587.20;;;;;;4996451;28;20030;-78
2022/05/23 05:13:11;;;;;;;4.70;1.58;;;487.30;1587.20;;;;;;5013656;28;20065;-75
2022/05/23 05:15:37;;;;;;;3.13;1.60;;;487.30;1561.60;;;;;;5013865;28;20022;-75
2022/05/23 05:18:03;;;;;;;3.42;1.60;;;512.00;1561.60;;;;;;5013427;28;20053;-78
2022/05/23 05:20:29;;;;;;;6.55;2.20;;;487.30;1561.60;;;;;;5013853;28;20113;-76
2022/05/23 05:22:55;;;;;;;5.28;1.77;;;487.30;1536.00;;;;;;5012813;28;20046;-76
2022/05/23 05:25:21;;;;;;;4.82;1.85;;;487.30;1561.60;;;;;;5013576;28;20036;-78
2022/05/23 05:27:47;;;;;;;4.68;1.38;;;487.30;1587.20;;;;;;5013631;28;20466;-79
2022/05/23 05:30:16;;;;;;;4.18;1.90;;;487.30;1561.60;;;;;;4995520;28;20055;-77
2022/05/23 05:33:06;;;;;;;4.75;1.65;;;487.30;1561.60;;;;;;5013480;28;20025;-77
2022/05/23 05:36:03;;;;;;;4.70;1.90;;;512.10;1536.00;;;;;;5012766;28;20482;-78
2022/05/23 05:38:41;;;;;;;3.45;1.48;;;512.10;1561.60;;;;;;4925210;29;20091;-77
2022/05/23 05:41:14;;;;;;;8.52;2.35;;;512.20;1561.60;;;;;;4933473;29;20455;-78
2022/05/23 05:43:48;;;;;;;5.05;1.50;;;512.30;1561.60;;;;;;4933912;29;20047;-77
2022/05/23 05:46:19;;;;;;;6.78;1.90;;;512.40;1536.00;;;;;;4933779;29;20118;-77
2022/05/23 05:48:46;;;;;;;3.00;1.20;;;512.50;1510.40;;;;;;4933717;29;20034;-78
2022/05/23 05:51:16;;;;;;;6.30;1.50;;;512.50;1510.40;;;;;;4933425;29;20427;-78
2022/05/23 05:53:43;;;;;;;3.20;1.60;;;512.40;1510.40;;;;;;4917311;29;20468;-77
2022/05/23 05:56:10;;;;;;;3.50;1.67;;;512.50;1510.40;;;;;;4933467;29;20040;-76
2022/05/23 05:58:37;;;;;;;6.63;1.80;;;512.50;1510.40;;;;;;4933314;29;20032;-76
2022/05/23 06:01:03;;;;;;;5.90;2.15;;;512.50;1510.40;;;;;;4933475;28;20024;-75
2022/05/23 06:03:29;;;;;;;2.38;1.45;;;512.60;1536.00;;;;;;4933611;29;20032;-76
2022/05/23 06:11:23;;;;;;;5.30;1.50;;;512.90;1484.80;;;;;;4932215;29;20110;-77
2022/05/23 06:13:50;;;;;;;3.50;1.73;;;512.90;1459.20;;;;;;4922004;28;20484;-79
2022/05/23 06:16:16;;;;;;;4.75;1.52;;;512.90;1484.80;;;;;;4975705;28;20022;-79
2022/05/23 06:18:42;;;;;;;7.00;1.50;;;512.90;1484.80;;;;;;4993314;28;20030;-78
2022/05/23 06:21:09;;;;;;;11.38;1.85;;;537.80;1510.40;;;;;;4992819;28;20101;-78
2022/05/23 06:23:38;;;;;;;3.63;1.50;;;537.80;1510.40;;;;;;4992980;28;20050;-78
2022/05/23 06:26:03;;;;;;;4.85;1.40;;;537.80;1484.80;;;;;;4993036;28;20030;-75
2022/05/23 06:28:29;;;;;;;7.50;1.83;;;538.00;1510.40;;;;;;4993001;28;20033;-76
2022/05/23 06:30:57;;;;;;;5.30;1.48;;;538.00;1484.80;;;;;;4993224;28;20054;-78
2022/05/23 06:33:23;;;;;;;4.47;1.50;;;538.10;1484.80;;;;;;4992902;28;20456;-76
2022/05/23 06:35:50;;;;;;;3.55;1.40;;;538.20;1484.80;;;;;;4992984;28;20022;-75
2022/05/23 06:38:16;;;;;;;10.85;1.60;;;538.30;1433.60;;;;;;4992519;28;20042;-76
2022/05/23 06:40:42;;;;;;;4.35;1.60;;;538.40;1459.20;;;;;;4992898;28;20426;-77
2022/05/23 06:43:09;;;;;;;5.22;1.40;;;538.40;1433.60;;;;;;4992484;28;20085;-78
2022/05/23 06:45:35;;;;;;;4.20;1.60;;;538.50;1459.20;;;;;;4992981;28;20124;-76
2022/05/23 06:48:01;;;;;;;5.07;1.35;;;563.20;1484.80;;;;;;4993603;28;20021;-77
2022/05/23 06:50:27;;;;;;;4.50;1.42;;;563.30;1484.80;;;;;;4988583;28;20112;-78
2022/05/23 06:52:52;;;;;;;4.28;1.60;;;563.50;1484.80;;;;;;5011694;28;20022;-78
2022/05/23 06:55:18;;;;;;;4.22;1.83;;;563.50;1459.20;;;;;;5011601;28;20084;-76
2022/05/23 06:57:44;;;;;;;8.10;1.95;;;563.60;1408.00;;;;;;5012040;28;20492;-77
2022/05/23 07:00:10;;;;;;;2.67;1.20;;;563.90;1433.60;;;;;;4993850;28;20479;-78
2022/05/23 07:02:37;;;;;;;4.03;1.55;;;564.00;1408.00;;;;;;5011812;28;20018;-77
2022/05/23 07:13:16;;;;;;;12.80;1.45;;;564.10;1356.80;;;;;;5010515;28;20393;-76
2022/05/23 07:15:47;;;;;;;4.65;1.40;;;588.80;1382.40;;;;;;5011584;28;20026;-78
2022/05/23 07:18:20;;;;;;;3.00;1.55;;;588.80;1331.20;;;;;;5009557;28;20061;-78
2022/05/23 07:20:46;;;;;;;2.08;1.48;;;564.10;1331.20;;;;;;4994171;28;20058;-78
2022/05/23 07:23:13;;;;;;;2.58;1.30;;;588.90;1305.60;;;;;;5013523;28;20042;-77
2022/05/23 07:25:40;;;;;;;3.92;1.52;;;589.20;1331.20;;;;;;5015700;28;20504;-77
2022/05/23 07:28:06;;;;;;;1.85;1.10;;;589.20;1356.80;;;;;;5015930;28;20029;-75
2022/05/23 07:30:32;;;;;;;4.80;1.48;;;589.20;1356.80;;;;;;5015743;28;20521;-77
2022/05/23 07:32:58;;;;;;;2.78;1.15;;;589.20;1331.20;;;;;;4997853;28;20147;-78
2022/05/23 07:35:25;;;;;;;5.45;1.30;;;589.20;1280.00;;;;;;4997955;28;20029;-79
2022/05/23 07:37:51;;;;;;;4.28;1.67;;;589.50;1305.60;;;;;;5015380;28;20085;-78
2022/05/23 07:40:17;;;;;;;1.85;1.02;;;589.60;1280.00;;;;;;5014842;28;20037;-78
2022/05/23 07:42:45;;;;;;;4.57;1.40;;;589.70;1305.60;;;;;;5015306;28;20053;-78
2022/05/23 07:45:12;;;;;;;6.22;1.25;;;614.50;1228.80;;;;;;5015617;28;20033;-77
2022/05/23 07:47:38;;;;;;;4.82;1.27;;;614.60;1203.20;;;;;;5015329;28;20025;-77
2022/05/23 07:50:06;;;;;;;1.27;0.90;;;614.70;1203.20;;;;;;4997507;28;20034;-77
2022/05/23 07:52:31;;;;;;;8.18;1.90;;;614.70;1203.20;;;;;;4981322;28;20034;-77
2022/05/23 08:00:35;;;;;;;4.75;1.73;;;614.90;1177.60;;;;;;5014901;28;20052;-77
2022/05/23 08:03:18;;;;;;;3.35;1.45;;;614.80;1177.60;;;;;;5015103;28;20018;-78
2022/05/23 08:05:45;;;;;;;6.57;1.60;;;614.90;1152.00;;;;;;5015420;28;20026;-77
2022/05/23 08:08:12;;;;;;;3.03;1.33;;;615.00;1152.00;;;;;;4997265;28;20118;-77
2022/05/23 08:10:38;;;;;;;3.22;1.33;;;615.20;1126.40;;;;;;4997083;28;20033;-78
2022/05/23 08:13:11;;;;;;;4.07;1.67;;;615.30;1152.00;;;;;;4997200;28;20117;-78
2022/05/23 08:15:39;;;;;;;4.53;1.50;;;615.30;1152.00;;;;;;4997180;28;20096;-77
2022/05/23 08:18:06;;;;;;;2.92;1.00;;;615.30;1126.40;;;;;;4997407;28;20458;-78
2022/05/23 08:20:33;;;;;;;2.72;1.52;;;615.30;1126.40;;;;;;5014777;28;20430;-77
2022/05/23 08:22:59;;;;;;;5.82;1.38;;;615.20;1075.20;;;;;;5014508;28;20056;-76
2022/05/23 08:25:26;;;;;;;3.67;1.48;;;615.20;1075.20;;;;;;5014370;28;20379;-79
2022/05/23 08:27:55;;;;;;;3.55;1.30;;;615.30;1100.80;;;;;;5014663;28;20055;-77
2022/05/23 08:30:21;;;;;;;3.42;1.40;;;640.00;1126.40;;;;;;5014438;28;20029;-75
2022/05/23 08:32:47;;;;;;;4.30;1.50;;;640.00;1126.40;;;;;;5014566;28;20026;-76
2022/05/23 08:35:14;;;;;;;5.30;1.20;;;640.10;1100.80;;;;;;5013559;28;20033;-76
2022/05/23 08:37:41;;;;;;;6.10;1.45;;;640.20;1075.20;;;;;;4996825;28;20026;-76
2022/05/23 08:40:09;;;;;;;2.25;1.23;;;640.20;1075.20;;;;;;5014570;28;20041;-78
2022/05/23 08:42:50;;;;;;;4.18;1.20;;;640.20;1100.80;;;;;;4995650;28;20481;-75
2022/05/23 08:45:26;;;;;;;3.40;1.45;;;640.20;1100.80;;;;;;5014448;28;20030;-78
2022/05/23 08:48:08;;;;;;;3.88;1.40;;;640.20;1075.20;;;;;;4996848;28;20022;-77
2022/05/23 08:50:52;;;;;;;3.08;1.55;;;640.10;1075.20;;;;;;5014277;28;20091;-76
2022/05/23 08:53:24;;;;;;;3.30;1.38;;;640.20;1126.40;;;;;;5013247;28;20113;-78
2022/05/23 08:55:59;;;;;;;4.18;1.60;;;640.40;1100.80;;;;;;5014160;28;20061;-78
2022/05/23 08:58:44;;;;;;;;;;;640.50;1100.80;;;;;;4996658;28;20038;-79
2022/05/23 09:01:18;;;;;;;5.93;1.83;;;640.60;1100.80;;;;;;5013036;28;20546;-78
2022/05/23 09:04:09;;;;;;;5.18;1.25;;;640.60;1075.20;;;;;;5013749;28;20030;-78
2022/05/23 09:06:47;;;;;;;3.80;1.48;;;640.60;1075.20;;;;;;5013638;28;20053;-77
2022/05/23 09:09:17;;;;;;;4.18;1.60;;;640.70;1100.80;;;;;;5011243;28;20034;-77
2022/05/23 09:11:48;;;;;;;5.53;1.20;;;640.70;1075.20;;;;;;5013312;28;20679;-80
2022/05/23 09:14:19;;;;;;;2.33;1.30;;;640.90;1075.20;;;;;;4995896;28;20112;-82
2022/05/23 09:16:56;;;;;;;7.05;1.60;;;640.90;1049.60;;;;;;5011571;28;20058;-82
2022/05/23 09:19:28;;;;;;;4.70;1.55;;;665.60;1075.20;;;;;;5014157;28;20037;-80
2022/05/23 09:22:19;;;;;;;2.08;1.30;;;665.60;1075.20;;;;;;4995534;28;20133;-81
2022/05/23 09:24:48;;;;;;;2.60;1.40;;;665.70;1049.60;;;;;;4996211;28;20038;-80
2022/05/23 09:27:34;;;;;;;2.67;1.20;;;665.70;1049.60;;;;;;5013832;28;20072;-80
2022/05/23 09:30:00;;;;;;;3.25;1.33;;;666.00;1075.20;;;;;;5013638;28;20029;-80
2022/05/23 09:32:32;;;;;;;8.00;1.75;;;666.10;1049.60;;;;;;5013493;28;20029;-80
2022/05/23 09:35:19;;;;;;;2.33;1.33;;;666.30;1049.60;;;;;;4995236;28;20033;-77
2022/05/23 09:37:48;;;;;;;8.20;1.60;;;666.40;1024.00;;;;;;4995273;28;20562;-80
2022/05/23 09:40:28;;;;;;;8.55;2.25;;;666.40;1049.60;;;;;;4996040;28;20096;-80
2022/05/23 09:49:06;;;;;;;2.00;1.20;;;;;;;;;;5013459;28;20045;-82
2022/05/23 09:51:46;;;;;;;4.05;1.30;;;691.60;1024.00;;;;;;5013065;28;20522;-81
2022/05/23 09:54:18;;;;;;;5.13;1.45;;;691.70;1024.00;;;;;;4995042;28;21177;-80
2022/05/23 09:56:45;;;;;;;3.70;1.27;;;691.70;998.40;;;;;;4995465;28;20100;-80
2022/05/23 09:59:31;;;;;;;3.38;1.30;;;691.80;972.80;;;;;;4995692;28;20041;-80
2022/05/23 10:02:01;;;;;;;4.90;1.63;;;692.10;1024.00;;;;;;4995457;28;20105;-81
2022/05/23 10:04:30;;;;;;;5.10;2.20;;;692.10;998.40;;;;;;4994418;28;20498;-78
2022/05/23 10:06:57;;;;;;;9.18;1.90;;;692.00;972.80;;;;;;4995503;28;20030;-80
2022/05/23 10:09:34;;;;;;;6.85;1.70;;;692.00;947.20;;;;;;4995168;28;20121;-79
2022/05/23 10:12:08;;;;;;;9.02;1.80;;;692.00;972.80;;;;;;4994667;28;20084;-81
2022/05/23 10:14:50;;;;;;;5.13;1.60;;;691.90;972.80;;;;;;5012555;28;20017;-80
2022/05/23 10:17:34;;;;;;;4.20;1.70;;;716.90;998.40;;;;;;4993636;28;20026;-83
2022/05/23 10:20:24;;;;;;;4.45;1.35;;;717.10;998.40;;;;;;5008097;28;20045;-84
2022/05/23 10:23:15;;;;;;;2.28;1.13;;;716.90;998.40;;;;;;4994441;28;20046;-81
2022/05/23 10:26:05;;;;;;;2.28;1.08;;;716.90;972.80;;;;;;4986147;28;20486;-81
2022/05/23 10:28:44;;;;;;;5.75;1.73;;;717.20;921.60;;;;;;4994730;28;20030;-82
2022/05/23 10:31:20;;;;;;;3.72;1.40;;;717.30;921.60;;;;;;4994829;28;20098;-82
2022/05/23 10:33:53;;;;;;;4.85;1.50;;;717.20;998.40;;;;;;4994599;28;20393;-81
2022/05/23 10:36:24;;;;;;;2.63;1.50;;;717.20;972.80;;;;;;5010437;28;20034;-79
2022/05/23 10:42:10;;;;;;;2.53;1.30;;;717.30;947.20;;;;;;5005255;28;20064;-82
2022/05/23 10:45:03;;;;;;;4.32;1.15;;;717.50;921.60;;;;;;4994860;28;20022;-81
2022/05/23 10:47:34;;;;;;;2.40;1.10;;;717.70;972.80;;;;;;4933022;29;20123;-81
2022/05/23 10:50:24;;;;;;;2.95;1.40;;;742.40;972.80;;;;;;4932890;29;20036;-81
2022/05/23 10:53:02;;;;;;;6.85;1.55;;;742.40;947.20;;;;;;4945304;29;20484;-81
2022/05/23 10:55:51;;;;;;;4.03;1.23;;;717.70;921.60;;;;;;4951970;29;20055;-83
2022/05/23 10:58:39;;;;;;;4.57;1.70;;;742.40;972.80;;;;;;4954180;28;20098;-82
2022/05/23 11:01:29;;;;;;;3.47;1.48;;;742.40;972.80;;;;;;4956518;29;20038;-78
2022/05/23 11:04:25;;;;;;;2.88;1.27;;;717.60;998.40;;;;;;4955956;29;20039;-78
2022/05/23 11:07:00;;;;;;;3.35;1.42;;;717.60;921.60;;;;;;4956091;29;20023;-78
2022/05/23 11:09:39;;;;;;;5.85;1.63;;;717.50;947.20;;;;;;4955628;29;20038;-79
2022/05/23 11:12:24;;;;;;;2.22;1.45;;;717.60;947.20;;;;;;4955605;29;20046;-81
2022/05/23 11:15:14;;;;;;;5.15;1.23;;;717.50;1024.00;;;;;;4955899;29;20104;-79
2022/05/23 11:18:03;;;;;;;5.38;1.80;;;717.40;1024.00;;;;;;4955741;29;20575;-80
2022/05/23 11:20:37;;;;;;;3.85;1.67;;;717.30;1024.00;;;;;;4941960;29;20402;-79
2022/05/23 11:23:17;;;;;;;3.28;1.30;;;717.50;998.40;;;;;;4955319;29;20071;-78
2022/05/23 11:25:46;;;;;;;1.98;1.10;;;717.70;972.80;;;;;;4998366;28;20045;-79
2022/05/23 11:34:49;;;;;;;8.15;1.23;;;717.50;972.80;;;;;;4935953;29;20135;-81
2022/05/23 11:40:06;;;;;;;2.30;1.30;;;717.70;972.80;;;;;;4879433;29;20498;-78
2022/05/23 11:42:56;;;;;;;3.38;1.67;;;742.40;972.80;;;;;;4879216;29;20037;-80
2022/05/23 11:49:00;;;;;;;7.40;1.88;;;742.80;921.60;;;;;;4879288;29;20426;-80
2022/05/23 11:51:30;;;;;;;3.42;1.65;;;743.00;972.80;;;;;;4823618;29;20500;-76
2022/05/23 11:54:06;;;;;;;4.55;1.50;;;743.00;972.80;;;;;;4823787;29;20034;-78
2022/05/23 11:56:44;;;;;;;4.32;1.45;;;742.90;972.80;;;;;;4823547;29;20030;-76
2022/05/23 11:59:32;;;;;;;3.42;1.50;;;743.30;972.80;;;;;;4823682;29;20077;-77
2022/05/23 12:02:10;;;;;;;3.30;1.33;;;742.90;947.20;;;;;;4823716;29;20038;-77
2022/05/23 12:04:56;;;;;;;3.08;1.63;;;742.90;947.20;;;;;;4823792;29;20047;-79
2022/05/23 12:07:31;;;;;;;3.63;1.50;;;717.50;921.60;;;;;;4823450;29;20113;-80
2022/05/23 12:10:15;;;;;;;5.23;1.47;;;717.40;972.80;;;;;;4828595;29;20042;-77
2022/05/23 12:12:54;;;;;;;3.28;1.40;;;717.30;921.60;;;;;;4826229;29;20078;-81
2022/05/23 12:15:44;;;;;;;2.72;1.30;;;717.10;921.60;;;;;;4896714;29;20061;-79
2022/05/23 12:18:13;;;;;;;3.78;1.30;;;716.90;921.60;;;;;;4916468;29;20083;-80
2022/05/23 12:20:47;;;;;;;2.75;1.60;;;692.00;947.20;;;;;;4900717;29;20111;-81
2022/05/23 12:23:29;;;;;;;6.22;1.77;;;691.90;972.80;;;;;;4900187;29;20063;-78
2022/05/23 12:26:10;;;;;;;4.10;1.80;;;692.10;972.80;;;;;;4903633;28;20107;-78
2022/05/23 12:29:03;;;;;;;8.88;2.08;;;716.80;1024.00;;;;;;4995311;28;20031;-80
2022/05/23 12:31:32;;;;;;;7.80;1.65;;;717.10;998.40;;;;;;4995067;28;20101;-80
2022/05/23 12:34:03;;;;;;;4.72;1.50;;;717.50;972.80;;;;;;4994889;28;20101;-78
2022/05/23 12:36:38;;;;;;;5.10;1.52;;;742.50;972.80;;;;;;4995162;28;20482;-80
2022/05/23 12:39:16;;;;;;;2.90;1.77;;;717.70;947.20;;;;;;4994825;28;20088;-82
2022/05/23 12:41:53;;;;;;;7.50;1.60;;;717.40;921.60;;;;;;4994846;28;20054;-80
2022/05/23 12:44:36;;;;;;;4.40;1.50;;;717.10;947.20;;;;;;4994999;28;20046;-79
2022/05/23 12:47:28;;;;;;;3.35;1.52;;;717.10;947.20;;;;;;4994718;28;20053;-78
2022/05/23 12:50:13;;;;;;;3.95;1.40;;;716.80;998.40;;;;;;4994632;28;20037;-77
2022/05/23 12:52:56;;;;;;;7.80;2.47;;;716.80;998.40;;;;;;4994363;28;20026;-77
2022/05/23 12:55:22;;;;;;;3.13;1.75;;;717.20;998.40;;;;;;4994574;28;20089;-80
2022/05/23 12:58:03;;;;;;;3.63;1.48;;;717.50;1024.00;;;;;;4976850;28;20022;-77
2022/05/23 13:00:40;;;;;;;2.83;1.48;;;717.70;1024.00;;;;;;4976752;28;20394;-77
2022/05/23 13:03:47;;;;;;;10.82;1.83;;;717.60;1049.60;;;;;;4994503;28;20109;-76
2022/05/23 13:06:26;;;;;;;5.15;1.60;;;717.60;1049.60;;;;;;4896718;29;20041;-77
2022/05/23 13:09:17;;;;;;;3.13;1.45;;;742.90;1024.00;;;;;;4896646;29;20490;-79
2022/05/23 13:12:08;;;;;;;4.65;1.50;;;743.10;998.40;;;;;;4895783;29;20029;-77
2022/05/23 13:14:56;;;;;;;8.50;1.80;;;768.10;972.80;;;;;;4893711;29;20036;-77
2022/05/23 13:17:31;;;;;;;3.90;1.50;;;743.20;947.20;;;;;;4896013;29;20052;-77
2022/05/23 13:22:41;;;;;;;4.68;1.50;;;742.90;972.80;;;;;;4902233;29;20117;-79
2022/05/23 13:25:07;;;;;;;3.90;1.70;;;742.90;972.80;;;;;;4898952;29;20040;-78
2022/05/23 13:27:49;;;;;;;4.35;1.67;;;742.90;947.20;;;;;;4913883;29;20119;-79
2022/05/23 13:30:17;;;;;;;3.53;1.60;;;743.00;972.80;;;;;;4914499;29;20033;-79
2022/05/23 13:32:44;;;;;;;3.50;1.17;;;742.80;972.80;;;;;;4914274;29;20036;-80
2022/05/23 13:35:22;;;;;;;4.28;1.48;;;742.50;998.40;;;;;;4898560;29;20052;-80
2022/05/23 13:37:48;;;;;;;8.30;1.85;;;742.40;947.20;;;;;;4896262;29;20123;-78
2022/05/23 13:40:21;;;;;;;5.60;1.75;;;742.40;947.20;;;;;;4914441;29;20119;-78
2022/05/23 13:42:47;;;;;;;4.10;1.50;;;742.40;972.80;;;;;;4956214;28;20030;-78
2022/05/23 13:45:14;;;;;;;4.18;2.00;;;717.70;947.20;;;;;;4995162;28;20413;-81
2022/05/23 13:47:48;;;;;;;3.13;1.58;;;717.40;972.80;;;;;;4995156;28;20120;-81